Airfield :
LOGIN :

Register | Disclaimer

   EN    FR    IT 

 










Legend :    VFR   Marginal VFR   IFR   Intensive IFR   Very Intensive IFR
Visi :
Ceiling :
>= 8 km
>= 3000ft
5 to 8 km
1000 to 3000 ft
1500m to 5 km
500 to 1000 ft
800 to 1500m
200 to 500 ft
< 800m
< 200 ft
Symbols :   Thunderstorms  Fog  Heavy snow  Heavy precipitations  Wind > 20 kt
SIGMETs :     Misc.  Thunderstorms  Icing  Turbulence  Mountain Waves  Volcanic Ashes






- Airport Elevation : 157 ft
- IATA code : SXF


EDDB - Berlin Schönefeld

CURRENT METAR :
  • 221520Z 06005KT 9999 FEW028 08/08 Q1010 NOSIG

EXPIRED METARs :
  • 221450Z 08005KT 9999 FEW021 09/08 Q1010 NOSIG
  • 221420Z 10006KT 070V130 9999 FEW021 10/08 Q1011 NOSIG
  • 221350Z 09007KT 9999 SCT018 10/08 Q1010 NOSIG
  • 221320Z 11007KT 9999 BKN019 10/08 Q1010 NOSIG
  • 221250Z 11007KT 070V130 9999 SCT012 BKN016 10/08 Q1011 TEMPO BKN012

TAF TAF EDDB
Valid from the 22 at 12:00 until the 23 at 12:00 UTC


221100Z 2212/2312 11007KT 9999 BKN015
TEMPO 2212/2218 BKN012
BECMG 2218/2222 BKN012
TEMPO 2302/2309 BKN008
BECMG 2309/2312 BKN015



MET'MAP, your aeronautical weather chart ! - Copyright ORBIFLY December 2007 - Disclaimer

ORBIFLY MET'MAP TEAM :

Programming & Development : Alexandra Zaïnal
Concept & Development : Baudouin d'Aumeries
Co-Development & Prog : Marc-Olivier Méhu
Technical & hardware support : Manuel Goepfert

Contact : metmap@orbifly.com




SOURCES & CREDITS :

   NOAA